KPIE/PIE METAR and TAF weather

Enter ICAO airport designator
Station Type Date Time Source
KPIE METAR 2023/02/05 22:53 UTC NOAA

KPIE 052253Z 32004KT 10SM CLR 21/18 A3008 RMK AO2 SLP185 T02110178


Station Type Date Time Source
KPIE Decoded METAR 2023/02/05 22:53 UTC NOAA

ST PETERSBURG/CLEARWATER, FL, United States (KPIE) 27-55N 82-41W 4M
Feb 05, 2023 - 05:53 PM EST / 2023.02.05 2253 UTC
Wind: from the NW (320 degrees) at 5 MPH (4 KT):0
Visibility: 10 mile(s):0
Sky conditions: clear
Temperature: 70.0 F (21.1 C)
Dew Point: 64.0 F (17.8 C)
Relative Humidity: 81%
Pressure (altimeter): 30.08 in. Hg (1018 hPa)
ob: KPIE 052253Z 32004KT 10SM CLR 21/18 A3008 RMK AO2 SLP185 T02110178
cycle: 23

Station Type Date Time Source
KPIE TAF 2023/02/05 21:33 UTC NOAA

TAF
AMD KPIE 052031Z 0521/0618 32007KT P6SM BKN120
FM060700 03007KT P6SM SCT250

Example: see airport list